sensor_id;sensor_type;location;lat;lon;timestamp;temperature;humidity
40454;DHT22;26160;51.858;4.398;2023-06-14T00:01:59;20.30;13.70
40454;DHT22;26160;51.858;4.398;2023-06-14T00:04:25;20.20;13.00
40454;DHT22;26160;51.858;4.398;2023-06-14T00:06:52;20.20;14.40
40454;DHT22;26160;51.858;4.398;2023-06-14T00:09:18;20.20;35.10
40454;DHT22;26160;51.858;4.398;2023-06-14T00:11:44;20.10;32.50
40454;DHT22;26160;51.858;4.398;2023-06-14T00:14:10;20.10;24.50
40454;DHT22;26160;51.858;4.398;2023-06-14T00:16:37;20.10;39.40
40454;DHT22;26160;51.858;4.398;2023-06-14T00:19:04;20.00;32.00
40454;DHT22;26160;51.858;4.398;2023-06-14T00:21:31;19.90;59.10
40454;DHT22;26160;51.858;4.398;2023-06-14T00:23:58;19.90;39.60
40454;DHT22;26160;51.858;4.398;2023-06-14T00:26:24;19.90;76.30
40454;DHT22;26160;51.858;4.398;2023-06-14T00:28:53;19.80;55.80
40454;DHT22;26160;51.858;4.398;2023-06-14T00:31:19;19.80;59.50
40454;DHT22;26160;51.858;4.398;2023-06-14T00:33:45;19.70;80.90
40454;DHT22;26160;51.858;4.398;2023-06-14T00:36:12;19.70;90.90
40454;DHT22;26160;51.858;4.398;2023-06-14T00:38:38;19.60;99.90
40454;DHT22;26160;51.858;4.398;2023-06-14T00:41:04;19.60;99.90
40454;DHT22;26160;51.858;4.398;2023-06-14T00:43:30;19.60;99.90
40454;DHT22;26160;51.858;4.398;2023-06-14T00:45:58;19.60;99.90
40454;DHT22;26160;51.858;4.398;2023-06-14T00:48:24;19.50;99.90
40454;DHT22;26160;51.858;4.398;2023-06-14T00:50:51;19.50;99.90
40454;DHT22;26160;51.858;4.398;2023-06-14T00:53:19;19.40;99.90
40454;DHT22;26160;51.858;4.398;2023-06-14T00:55:46;19.40;99.90
40454;DHT22;26160;51.858;4.398;2023-06-14T00:58:13;19.30;99.90
40454;DHT22;26160;51.858;4.398;2023-06-14T01:03:16;19.20;99.90
40454;DHT22;26160;51.858;4.398;2023-06-14T01:05:49;19.30;99.90
40454;DHT22;26160;51.858;4.398;2023-06-14T01:08:28;19.30;99.90
40454;DHT22;26160;51.858;4.398;2023-06-14T01:11:28;19.20;99.90
40454;DHT22;26160;51.858;4.398;2023-06-14T01:14:00;19.20;99.90
40454;DHT22;26160;51.858;4.398;2023-06-14T01:16:29;19.30;99.90
40454;DHT22;26160;51.858;4.398;2023-06-14T01:18:55;19.20;99.90
40454;DHT22;26160;51.858;4.398;2023-06-14T01:21:23;19.20;99.90
40454;DHT22;26160;51.858;4.398;2023-06-14T01:23:50;19.20;99.90
40454;DHT22;26160;51.858;4.398;2023-06-14T01:26:21;19.10;99.90
40454;DHT22;26160;51.858;4.398;2023-06-14T01:28:49;19.10;99.90
40454;DHT22;26160;51.858;4.398;2023-06-14T01:31:21;19.00;99.90
40454;DHT22;26160;51.858;4.398;2023-06-14T01:33:51;18.90;99.90
40454;DHT22;26160;51.858;4.398;2023-06-14T01:36:19;19.00;99.90
40454;DHT22;26160;51.858;4.398;2023-06-14T01:38:49;19.00;99.90
40454;DHT22;26160;51.858;4.398;2023-06-14T01:41:17;19.00;99.90
40454;DHT22;26160;51.858;4.398;2023-06-14T01:43:45;19.00;99.90
40454;DHT22;26160;51.858;4.398;2023-06-14T01:46:13;19.00;99.90
40454;DHT22;26160;51.858;4.398;2023-06-14T01:48:40;19.00;99.90
40454;DHT22;26160;51.858;4.398;2023-06-14T01:51:06;18.90;99.90
40454;DHT22;26160;51.858;4.398;2023-06-14T01:53:32;18.80;99.90
40454;DHT22;26160;51.858;4.398;2023-06-14T01:55:58;18.70;99.90
40454;DHT22;26160;51.858;4.398;2023-06-14T01:58:25;18.70;99.90
40454;DHT22;26160;51.858;4.398;2023-06-14T02:00:52;18.60;99.90
40454;DHT22;26160;51.858;4.398;2023-06-14T02:03:21;18.60;99.90
40454;DHT22;26160;51.858;4.398;2023-06-14T02:05:47;18.60;99.90
40454;DHT22;26160;51.858;4.398;2023-06-14T02:08:13;18.50;99.90
40454;DHT22;26160;51.858;4.398;2023-06-14T02:10:39;18.50;99.90
40454;DHT22;26160;51.858;4.398;2023-06-14T02:13:05;18.50;99.90
40454;DHT22;26160;51.858;4.398;2023-06-14T02:15:31;18.30;99.90
40454;DHT22;26160;51.858;4.398;2023-06-14T02:18:03;18.20;99.90
40454;DHT22;26160;51.858;4.398;2023-06-14T02:20:29;18.20;99.90
40454;DHT22;26160;51.858;4.398;2023-06-14T02:22:56;18.10;99.90
40454;DHT22;26160;51.858;4.398;2023-06-14T02:25:22;18.00;1.00
40454;DHT22;26160;51.858;4.398;2023-06-14T02:27:48;17.90;1.00
40454;DHT22;26160;51.858;4.398;2023-06-14T02:30:14;17.90;1.00
40454;DHT22;26160;51.858;4.398;2023-06-14T02:32:41;17.90;1.00
40454;DHT22;26160;51.858;4.398;2023-06-14T02:35:08;17.90;99.90
40454;DHT22;26160;51.858;4.398;2023-06-14T02:37:35;17.90;1.00
40454;DHT22;26160;51.858;4.398;2023-06-14T02:40:01;17.80;1.00
40454;DHT22;26160;51.858;4.398;2023-06-14T02:42:27;17.80;1.00
40454;DHT22;26160;51.858;4.398;2023-06-14T02:44:53;17.70;1.00
40454;DHT22;26160;51.858;4.398;2023-06-14T02:47:20;17.70;1.00
40454;DHT22;26160;51.858;4.398;2023-06-14T02:49:46;17.70;1.00
40454;DHT22;26160;51.858;4.398;2023-06-14T02:52:12;17.70;1.00
40454;DHT22;26160;51.858;4.398;2023-06-14T02:54:38;17.70;1.00
40454;DHT22;26160;51.858;4.398;2023-06-14T02:57:05;17.70;1.00
40454;DHT22;26160;51.858;4.398;2023-06-14T02:59:33;17.70;1.00
40454;DHT22;26160;51.858;4.398;2023-06-14T03:01:59;17.70;1.00
40454;DHT22;26160;51.858;4.398;2023-06-14T03:04:25;17.60;1.00
40454;DHT22;26160;51.858;4.398;2023-06-14T03:06:52;17.60;1.00
40454;DHT22;26160;51.858;4.398;2023-06-14T03:09:19;17.60;1.00
40454;DHT22;26160;51.858;4.398;2023-06-14T03:11:46;17.60;1.00
40454;DHT22;26160;51.858;4.398;2023-06-14T03:14:12;17.60;1.00
40454;DHT22;26160;51.858;4.398;2023-06-14T03:16:39;17.50;1.00
40454;DHT22;26160;51.858;4.398;2023-06-14T03:19:07;17.50;1.00
40454;DHT22;26160;51.858;4.398;2023-06-14T03:21:33;17.50;1.00
40454;DHT22;26160;51.858;4.398;2023-06-14T03:24:00;17.30;3.80
40454;DHT22;26160;51.858;4.398;2023-06-14T03:26:28;17.30;1.00
40454;DHT22;26160;51.858;4.398;2023-06-14T03:28:54;17.30;7.20
40454;DHT22;26160;51.858;4.398;2023-06-14T03:31:23;17.30;99.90
40454;DHT22;26160;51.858;4.398;2023-06-14T03:33:49;17.20;99.90
40454;DHT22;26160;51.858;4.398;2023-06-14T03:36:15;17.20;99.90
40454;DHT22;26160;51.858;4.398;2023-06-14T03:38:41;17.20;99.90
40454;DHT22;26160;51.858;4.398;2023-06-14T03:41:07;17.20;1.80
40454;DHT22;26160;51.858;4.398;2023-06-14T03:43:33;17.20;70.20
40454;DHT22;26160;51.858;4.398;2023-06-14T03:46:00;17.20;54.60
40454;DHT22;26160;51.858;4.398;2023-06-14T03:48:26;17.20;1.00
40454;DHT22;26160;51.858;4.398;2023-06-14T03:50:52;17.10;1.00
40454;DHT22;26160;51.858;4.398;2023-06-14T03:53:20;17.10;1.00
40454;DHT22;26160;51.858;4.398;2023-06-14T03:55:50;17.00;91.20
40454;DHT22;26160;51.858;4.398;2023-06-14T03:58:18;17.00;99.90
40454;DHT22;26160;51.858;4.398;2023-06-14T04:00:44;17.00;1.00
40454;DHT22;26160;51.858;4.398;2023-06-14T04:03:11;17.10;99.90
40454;DHT22;26160;51.858;4.398;2023-06-14T04:05:39;17.00;99.90
40454;DHT22;26160;51.858;4.398;2023-06-14T04:08:08;17.10;99.90
40454;DHT22;26160;51.858;4.398;2023-06-14T04:10:35;17.00;1.00
40454;DHT22;26160;51.858;4.398;2023-06-14T04:13:01;17.00;99.90
40454;DHT22;26160;51.858;4.398;2023-06-14T04:15:28;17.00;65.70
40454;DHT22;26160;51.858;4.398;2023-06-14T04:17:54;17.10;99.90
40454;DHT22;26160;51.858;4.398;2023-06-14T04:20:24;17.10;1.00
40454;DHT22;26160;51.858;4.398;2023-06-14T04:22:53;17.10;1.00
40454;DHT22;26160;51.858;4.398;2023-06-14T04:25:20;17.10;96.60
40454;DHT22;26160;51.858;4.398;2023-06-14T04:27:46;17.10;99.90
40454;DHT22;26160;51.858;4.398;2023-06-14T04:30:13;17.20;1.00
40454;DHT22;26160;51.858;4.398;2023-06-14T04:32:39;17.20;1.00
40454;DHT22;26160;51.858;4.398;2023-06-14T04:35:08;17.30;33.80
40454;DHT22;26160;51.858;4.398;2023-06-14T04:37:34;17.30;99.90
40454;DHT22;26160;51.858;4.398;2023-06-14T04:40:01;17.30;99.90
40454;DHT22;26160;51.858;4.398;2023-06-14T04:42:30;17.30;99.90
40454;DHT22;26160;51.858;4.398;2023-06-14T04:44:58;17.30;1.00
40454;DHT22;26160;51.858;4.398;2023-06-14T04:53:10;17.40;1.00
40454;DHT22;26160;51.858;4.398;2023-06-14T04:56:16;17.40;99.90
40454;DHT22;26160;51.858;4.398;2023-06-14T04:59:29;17.50;1.00
40454;DHT22;26160;51.858;4.398;2023-06-14T05:03:04;17.80;1.00
40454;DHT22;26160;51.858;4.398;2023-06-14T05:06:48;18.30;1.00
40454;DHT22;26160;51.858;4.398;2023-06-14T05:10:14;18.60;99.90
40454;DHT22;26160;51.858;4.398;2023-06-14T05:28:37;19.50;1.00
40454;DHT22;26160;51.858;4.398;2023-06-14T05:34:07;19.80;1.00
40454;DHT22;26160;51.858;4.398;2023-06-14T05:36:34;19.90;1.00
40454;DHT22;26160;51.858;4.398;2023-06-14T06:11:09;20.80;99.90
40454;DHT22;26160;51.858;4.398;2023-06-14T06:13:39;20.80;99.90
40454;DHT22;26160;51.858;4.398;2023-06-14T06:16:08;21.10;99.90
40454;DHT22;26160;51.858;4.398;2023-06-14T06:18:36;21.10;99.90
40454;DHT22;26160;51.858;4.398;2023-06-14T06:21:04;21.30;99.90
40454;DHT22;26160;51.858;4.398;2023-06-14T06:30:42;21.70;99.90
40454;DHT22;26160;51.858;4.398;2023-06-14T06:33:15;21.60;99.90
40454;DHT22;26160;51.858;4.398;2023-06-14T06:36:05;21.70;99.90
40454;DHT22;26160;51.858;4.398;2023-06-14T06:38:42;21.80;99.90
40454;DHT22;26160;51.858;4.398;2023-06-14T06:41:13;21.90;99.90
40454;DHT22;26160;51.858;4.398;2023-06-14T06:43:42;22.00;99.90
40454;DHT22;26160;51.858;4.398;2023-06-14T06:46:11;22.10;99.90
40454;DHT22;26160;51.858;4.398;2023-06-14T06:48:53;22.20;99.90
40454;DHT22;26160;51.858;4.398;2023-06-14T06:51:21;22.30;99.90
40454;DHT22;26160;51.858;4.398;2023-06-14T06:53:56;22.50;99.90
40454;DHT22;26160;51.858;4.398;2023-06-14T06:56:55;22.60;99.90
40454;DHT22;26160;51.858;4.398;2023-06-14T06:59:24;22.60;99.90
40454;DHT22;26160;51.858;4.398;2023-06-14T07:02:02;22.80;99.90
40454;DHT22;26160;51.858;4.398;2023-06-14T07:04:37;22.80;99.90
40454;DHT22;26160;51.858;4.398;2023-06-14T07:07:06;23.00;99.90
40454;DHT22;26160;51.858;4.398;2023-06-14T07:09:39;23.10;99.90
40454;DHT22;26160;51.858;4.398;2023-06-14T07:12:08;23.20;99.90
40454;DHT22;26160;51.858;4.398;2023-06-14T07:15:10;23.30;99.90
40454;DHT22;26160;51.858;4.398;2023-06-14T07:17:54;23.00;99.90
40454;DHT22;26160;51.858;4.398;2023-06-14T07:20:30;23.00;99.90
40454;DHT22;26160;51.858;4.398;2023-06-14T07:23:08;23.10;99.90
40454;DHT22;26160;51.858;4.398;2023-06-14T07:25:37;23.30;99.90
40454;DHT22;26160;51.858;4.398;2023-06-14T07:28:03;23.30;99.90
40454;DHT22;26160;51.858;4.398;2023-06-14T07:30:31;23.50;99.90
40454;DHT22;26160;51.858;4.398;2023-06-14T07:32:57;23.70;99.90
40454;DHT22;26160;51.858;4.398;2023-06-14T07:35:23;23.80;99.90
40454;DHT22;26160;51.858;4.398;2023-06-14T07:37:50;23.90;99.90
40454;DHT22;26160;51.858;4.398;2023-06-14T07:40:17;23.70;94.70
40454;DHT22;26160;51.858;4.398;2023-06-14T07:42:44;23.60;73.60
40454;DHT22;26160;51.858;4.398;2023-06-14T07:45:15;23.50;97.60
40454;DHT22;26160;51.858;4.398;2023-06-14T07:47:42;23.80;81.50
40454;DHT22;26160;51.858;4.398;2023-06-14T07:50:12;24.10;92.70
40454;DHT22;26160;51.858;4.398;2023-06-14T07:52:40;24.40;70.40
40454;DHT22;26160;51.858;4.398;2023-06-14T07:55:07;24.60;64.20
40454;DHT22;26160;51.858;4.398;2023-06-14T07:57:33;24.70;60.90
40454;DHT22;26160;51.858;4.398;2023-06-14T07:59:59;24.70;50.40
40454;DHT22;26160;51.858;4.398;2023-06-14T08:02:25;24.70;40.40
40454;DHT22;26160;51.858;4.398;2023-06-14T08:04:51;24.80;27.80
40454;DHT22;26160;51.858;4.398;2023-06-14T08:07:18;24.60;29.30
40454;DHT22;26160;51.858;4.398;2023-06-14T08:09:46;24.50;32.90
40454;DHT22;26160;51.858;4.398;2023-06-14T08:12:12;24.70;24.70
40454;DHT22;26160;51.858;4.398;2023-06-14T08:14:41;25.00;25.90
40454;DHT22;26160;51.858;4.398;2023-06-14T08:17:08;25.00;23.20
40454;DHT22;26160;51.858;4.398;2023-06-14T08:19:34;25.10;29.70
40454;DHT22;26160;51.858;4.398;2023-06-14T08:22:00;25.20;16.50
40454;DHT22;26160;51.858;4.398;2023-06-14T08:24:27;25.00;9.80
40454;DHT22;26160;51.858;4.398;2023-06-14T08:26:54;25.00;24.10
40454;DHT22;26160;51.858;4.398;2023-06-14T08:29:34;25.50;24.00
40454;DHT22;26160;51.858;4.398;2023-06-14T08:32:23;25.50;28.20
40454;DHT22;26160;51.858;4.398;2023-06-14T08:34:49;25.60;21.70
40454;DHT22;26160;51.858;4.398;2023-06-14T08:37:39;25.90;19.70
40454;DHT22;26160;51.858;4.398;2023-06-14T08:40:20;25.80;18.70
40454;DHT22;26160;51.858;4.398;2023-06-14T08:42:54;26.00;2.20
40454;DHT22;26160;51.858;4.398;2023-06-14T08:45:22;26.00;9.20
40454;DHT22;26160;51.858;4.398;2023-06-14T08:47:50;25.70;1.00
40454;DHT22;26160;51.858;4.398;2023-06-14T08:50:21;25.70;1.00
40454;DHT22;26160;51.858;4.398;2023-06-14T08:52:58;25.90;1.00
40454;DHT22;26160;51.858;4.398;2023-06-14T08:55:33;26.20;1.00
40454;DHT22;26160;51.858;4.398;2023-06-14T08:58:00;26.10;1.00
40454;DHT22;26160;51.858;4.398;2023-06-14T09:00:27;26.30;1.00
40454;DHT22;26160;51.858;4.398;2023-06-14T09:02:54;25.70;1.00
40454;DHT22;26160;51.858;4.398;2023-06-14T09:05:25;25.90;1.00
40454;DHT22;26160;51.858;4.398;2023-06-14T09:07:51;26.30;1.00
40454;DHT22;26160;51.858;4.398;2023-06-14T09:10:21;25.90;1.00
40454;DHT22;26160;51.858;4.398;2023-06-14T09:12:48;26.20;1.00
40454;DHT22;26160;51.858;4.398;2023-06-14T09:15:31;26.20;1.00
40454;DHT22;26160;51.858;4.398;2023-06-14T09:21:08;26.50;1.00
40454;DHT22;26160;51.858;4.398;2023-06-14T09:23:43;26.90;1.00
40454;DHT22;26160;51.858;4.398;2023-06-14T09:26:17;26.90;1.00
40454;DHT22;26160;51.858;4.398;2023-06-14T09:31:46;26.60;1.00
40454;DHT22;26160;51.858;4.398;2023-06-14T09:34:13;26.90;1.00
40454;DHT22;26160;51.858;4.398;2023-06-14T09:36:40;26.80;1.00
40454;DHT22;26160;51.858;4.398;2023-06-14T09:39:08;26.20;1.00
40454;DHT22;26160;51.858;4.398;2023-06-14T09:41:39;26.20;1.00
40454;DHT22;26160;51.858;4.398;2023-06-14T09:44:35;26.30;1.00
40454;DHT22;26160;51.858;4.398;2023-06-14T09:47:10;26.50;1.00
40454;DHT22;26160;51.858;4.398;2023-06-14T09:50:00;27.00;1.00
40454;DHT22;26160;51.858;4.398;2023-06-14T09:53:02;27.20;1.00
40454;DHT22;26160;51.858;4.398;2023-06-14T09:55:34;27.30;1.00
40454;DHT22;26160;51.858;4.398;2023-06-14T10:01:30;27.30;1.00
40454;DHT22;26160;51.858;4.398;2023-06-14T10:04:09;27.10;1.00
40454;DHT22;26160;51.858;4.398;2023-06-14T10:09:21;27.10;1.00
40454;DHT22;26160;51.858;4.398;2023-06-14T10:11:49;27.10;1.00
40454;DHT22;26160;51.858;4.398;2023-06-14T10:24:06;27.00;1.00
40454;DHT22;26160;51.858;4.398;2023-06-14T10:35:28;28.30;1.00
40454;DHT22;26160;51.858;4.398;2023-06-14T10:38:07;27.60;1.00
40454;DHT22;26160;51.858;4.398;2023-06-14T10:40:35;28.00;1.00
40454;DHT22;26160;51.858;4.398;2023-06-14T10:43:28;28.10;1.00
40454;DHT22;26160;51.858;4.398;2023-06-14T10:46:33;27.70;1.00
40454;DHT22;26160;51.858;4.398;2023-06-14T10:49:09;27.40;1.00
40454;DHT22;26160;51.858;4.398;2023-06-14T10:51:58;27.10;1.00
40454;DHT22;26160;51.858;4.398;2023-06-14T10:57:01;27.40;1.00
40454;DHT22;26160;51.858;4.398;2023-06-14T10:59:29;27.20;1.00
40454;DHT22;26160;51.858;4.398;2023-06-14T11:04:54;27.40;1.00
40454;DHT22;26160;51.858;4.398;2023-06-14T11:10:43;27.90;1.00
40454;DHT22;26160;51.858;4.398;2023-06-14T11:13:24;28.30;1.00
40454;DHT22;26160;51.858;4.398;2023-06-14T11:15:56;28.40;1.00
40454;DHT22;26160;51.858;4.398;2023-06-14T11:18:30;28.40;1.00
40454;DHT22;26160;51.858;4.398;2023-06-14T11:21:00;28.00;1.00
40454;DHT22;26160;51.858;4.398;2023-06-14T11:23:29;27.90;1.00
40454;DHT22;26160;51.858;4.398;2023-06-14T11:26:06;27.70;1.00
40454;DHT22;26160;51.858;4.398;2023-06-14T11:28:56;27.80;1.00
40454;DHT22;26160;51.858;4.398;2023-06-14T11:34:19;28.00;1.00
40454;DHT22;26160;51.858;4.398;2023-06-14T11:37:06;28.00;1.00
40454;DHT22;26160;51.858;4.398;2023-06-14T11:40:07;28.20;1.00
40454;DHT22;26160;51.858;4.398;2023-06-14T11:42:41;28.40;1.00
40454;DHT22;26160;51.858;4.398;2023-06-14T12:07:43;28.90;1.00
40454;DHT22;26160;51.858;4.398;2023-06-14T12:20:17;28.70;1.00
40454;DHT22;26160;51.858;4.398;2023-06-14T12:23:06;28.30;1.00
40454;DHT22;26160;51.858;4.398;2023-06-14T12:25:35;28.00;1.00
40454;DHT22;26160;51.858;4.398;2023-06-14T12:28:32;28.40;1.00
40454;DHT22;26160;51.858;4.398;2023-06-14T12:33:37;28.40;1.00
40454;DHT22;26160;51.858;4.398;2023-06-14T12:36:07;28.40;1.00
40454;DHT22;26160;51.858;4.398;2023-06-14T12:38:35;28.50;1.00
40454;DHT22;26160;51.858;4.398;2023-06-14T12:41:04;28.30;1.00
40454;DHT22;26160;51.858;4.398;2023-06-14T12:43:32;28.40;1.00
40454;DHT22;26160;51.858;4.398;2023-06-14T12:46:19;28.60;1.00
40454;DHT22;26160;51.858;4.398;2023-06-14T13:02:25;28.60;1.00
40454;DHT22;26160;51.858;4.398;2023-06-14T13:05:19;28.40;1.00
40454;DHT22;26160;51.858;4.398;2023-06-14T13:07:57;28.30;1.00
40454;DHT22;26160;51.858;4.398;2023-06-14T13:14:00;28.40;1.00
40454;DHT22;26160;51.858;4.398;2023-06-14T13:16:39;28.50;1.00
40454;DHT22;26160;51.858;4.398;2023-06-14T13:21:50;28.50;1.00
40454;DHT22;26160;51.858;4.398;2023-06-14T13:24:22;28.30;1.00
40454;DHT22;26160;51.858;4.398;2023-06-14T13:27:06;28.70;1.00
40454;DHT22;26160;51.858;4.398;2023-06-14T13:29:38;28.70;1.00
40454;DHT22;26160;51.858;4.398;2023-06-14T13:32:14;28.80;1.00
40454;DHT22;26160;51.858;4.398;2023-06-14T13:34:48;28.80;1.00
40454;DHT22;26160;51.858;4.398;2023-06-14T13:37:17;28.80;1.00
40454;DHT22;26160;51.858;4.398;2023-06-14T13:39:58;28.80;1.00
40454;DHT22;26160;51.858;4.398;2023-06-14T13:46:07;28.10;1.00
40454;DHT22;26160;51.858;4.398;2023-06-14T13:48:39;28.10;1.00
40454;DHT22;26160;51.858;4.398;2023-06-14T13:51:14;28.10;1.00
40454;DHT22;26160;51.858;4.398;2023-06-14T13:53:45;27.70;1.00
40454;DHT22;26160;51.858;4.398;2023-06-14T13:56:29;28.20;1.00
40454;DHT22;26160;51.858;4.398;2023-06-14T13:58:57;28.30;1.00
40454;DHT22;26160;51.858;4.398;2023-06-14T14:01:47;28.40;1.00
40454;DHT22;26160;51.858;4.398;2023-06-14T14:04:35;28.40;1.00
40454;DHT22;26160;51.858;4.398;2023-06-14T14:07:08;28.50;1.00
40454;DHT22;26160;51.858;4.398;2023-06-14T14:09:37;28.80;1.00
40454;DHT22;26160;51.858;4.398;2023-06-14T14:12:12;29.10;1.00
40454;DHT22;26160;51.858;4.398;2023-06-14T14:14:38;29.00;1.00
40454;DHT22;26160;51.858;4.398;2023-06-14T14:17:07;28.60;1.00
40454;DHT22;26160;51.858;4.398;2023-06-14T14:19:34;28.40;1.00
40454;DHT22;26160;51.858;4.398;2023-06-14T14:22:12;28.50;1.00
40454;DHT22;26160;51.858;4.398;2023-06-14T14:24:39;28.60;1.00
40454;DHT22;26160;51.858;4.398;2023-06-14T14:27:13;28.60;1.00
40454;DHT22;26160;51.858;4.398;2023-06-14T14:29:45;28.40;1.00
40454;DHT22;26160;51.858;4.398;2023-06-14T14:32:19;28.30;1.00
40454;DHT22;26160;51.858;4.398;2023-06-14T14:35:06;28.50;1.00
40454;DHT22;26160;51.858;4.398;2023-06-14T14:37:49;28.50;1.00
40454;DHT22;26160;51.858;4.398;2023-06-14T14:40:21;28.50;1.00
40454;DHT22;26160;51.858;4.398;2023-06-14T14:45:26;28.50;1.00
40454;DHT22;26160;51.858;4.398;2023-06-14T14:48:24;28.20;1.00
40454;DHT22;26160;51.858;4.398;2023-06-14T15:02:31;27.90;1.00
40454;DHT22;26160;51.858;4.398;2023-06-14T15:04:57;27.90;1.00
40454;DHT22;26160;51.858;4.398;2023-06-14T15:13:34;27.90;1.00
40454;DHT22;26160;51.858;4.398;2023-06-14T15:18:37;28.30;1.00
40454;DHT22;26160;51.858;4.398;2023-06-14T15:21:03;28.30;1.00
40454;DHT22;26160;51.858;4.398;2023-06-14T15:23:46;28.30;1.00
40454;DHT22;26160;51.858;4.398;2023-06-14T15:29:45;28.10;1.00
40454;DHT22;26160;51.858;4.398;2023-06-14T15:35:15;28.20;1.00
40454;DHT22;26160;51.858;4.398;2023-06-14T15:37:42;28.40;1.00
40454;DHT22;26160;51.858;4.398;2023-06-14T15:40:12;28.20;1.00
40454;DHT22;26160;51.858;4.398;2023-06-14T15:42:52;28.30;1.00
40454;DHT22;26160;51.858;4.398;2023-06-14T15:45:23;28.40;1.00
40454;DHT22;26160;51.858;4.398;2023-06-14T15:47:50;28.50;1.00
40454;DHT22;26160;51.858;4.398;2023-06-14T15:52:52;28.20;1.00
40454;DHT22;26160;51.858;4.398;2023-06-14T15:55:20;27.90;1.00
40454;DHT22;26160;51.858;4.398;2023-06-14T15:57:47;28.00;1.00
40454;DHT22;26160;51.858;4.398;2023-06-14T16:00:14;28.00;1.00
40454;DHT22;26160;51.858;4.398;2023-06-14T16:02:40;27.70;1.00
40454;DHT22;26160;51.858;4.398;2023-06-14T16:05:06;27.50;1.00
40454;DHT22;26160;51.858;4.398;2023-06-14T16:07:33;27.30;1.00
40454;DHT22;26160;51.858;4.398;2023-06-14T16:09:59;27.30;1.00
40454;DHT22;26160;51.858;4.398;2023-06-14T16:12:25;27.40;1.00
40454;DHT22;26160;51.858;4.398;2023-06-14T16:14:51;27.50;1.00
40454;DHT22;26160;51.858;4.398;2023-06-14T16:17:18;27.60;1.00
40454;DHT22;26160;51.858;4.398;2023-06-14T16:19:44;27.60;1.00
40454;DHT22;26160;51.858;4.398;2023-06-14T16:22:10;27.60;1.00
40454;DHT22;26160;51.858;4.398;2023-06-14T16:24:36;27.40;1.00
40454;DHT22;26160;51.858;4.398;2023-06-14T16:27:03;27.30;1.00
40454;DHT22;26160;51.858;4.398;2023-06-14T16:29:32;27.30;1.00
40454;DHT22;26160;51.858;4.398;2023-06-14T16:31:58;27.10;1.00
40454;DHT22;26160;51.858;4.398;2023-06-14T16:34:24;27.10;1.00
40454;DHT22;26160;51.858;4.398;2023-06-14T16:36:51;26.90;1.00
40454;DHT22;26160;51.858;4.398;2023-06-14T16:39:17;27.00;1.00
40454;DHT22;26160;51.858;4.398;2023-06-14T16:41:43;26.90;1.00
40454;DHT22;26160;51.858;4.398;2023-06-14T16:44:10;26.90;1.00
40454;DHT22;26160;51.858;4.398;2023-06-14T16:46:37;26.90;1.00
40454;DHT22;26160;51.858;4.398;2023-06-14T16:49:03;26.70;1.00
40454;DHT22;26160;51.858;4.398;2023-06-14T16:51:29;26.50;1.00
40454;DHT22;26160;51.858;4.398;2023-06-14T16:53:55;26.50;1.00
40454;DHT22;26160;51.858;4.398;2023-06-14T16:56:22;26.50;1.00
40454;DHT22;26160;51.858;4.398;2023-06-14T16:58:56;26.50;1.00
40454;DHT22;26160;51.858;4.398;2023-06-14T17:01:22;26.70;1.00
40454;DHT22;26160;51.858;4.398;2023-06-14T17:03:51;27.20;1.00
40454;DHT22;26160;51.858;4.398;2023-06-14T17:06:18;27.30;1.00
40454;DHT22;26160;51.858;4.398;2023-06-14T17:08:46;27.10;1.00
40454;DHT22;26160;51.858;4.398;2023-06-14T17:11:34;26.90;1.00
40454;DHT22;26160;51.858;4.398;2023-06-14T17:14:03;26.20;1.00
40454;DHT22;26160;51.858;4.398;2023-06-14T17:17:04;26.30;1.00
40454;DHT22;26160;51.858;4.398;2023-06-14T17:22:40;26.90;1.00
40454;DHT22;26160;51.858;4.398;2023-06-14T17:25:47;26.80;1.00
40454;DHT22;26160;51.858;4.398;2023-06-14T17:28:13;26.70;1.00
40454;DHT22;26160;51.858;4.398;2023-06-14T17:31:14;27.00;1.00
40454;DHT22;26160;51.858;4.398;2023-06-14T17:36:21;27.10;1.00
40454;DHT22;26160;51.858;4.398;2023-06-14T17:38:48;27.20;1.00
40454;DHT22;26160;51.858;4.398;2023-06-14T17:41:17;27.20;1.00
40454;DHT22;26160;51.858;4.398;2023-06-14T17:43:44;27.40;1.00
40454;DHT22;26160;51.858;4.398;2023-06-14T17:46:11;27.30;1.00
40454;DHT22;26160;51.858;4.398;2023-06-14T17:51:13;27.30;1.00
40454;DHT22;26160;51.858;4.398;2023-06-14T17:53:41;27.20;1.00
40454;DHT22;26160;51.858;4.398;2023-06-14T17:59:35;26.60;1.00
40454;DHT22;26160;51.858;4.398;2023-06-14T18:04:49;26.20;1.00
40454;DHT22;26160;51.858;4.398;2023-06-14T18:10:26;25.60;1.00
40454;DHT22;26160;51.858;4.398;2023-06-14T18:12:59;25.50;1.00
40454;DHT22;26160;51.858;4.398;2023-06-14T18:15:26;25.40;1.00
40454;DHT22;26160;51.858;4.398;2023-06-14T18:17:53;25.20;1.00
40454;DHT22;26160;51.858;4.398;2023-06-14T18:20:39;25.10;1.00
40454;DHT22;26160;51.858;4.398;2023-06-14T18:23:05;24.90;1.00
40454;DHT22;26160;51.858;4.398;2023-06-14T18:25:32;24.70;1.00
40454;DHT22;26160;51.858;4.398;2023-06-14T18:28:00;24.60;1.00
40454;DHT22;26160;51.858;4.398;2023-06-14T18:30:28;24.50;1.00
40454;DHT22;26160;51.858;4.398;2023-06-14T18:32:57;24.60;1.00
40454;DHT22;26160;51.858;4.398;2023-06-14T18:35:23;24.50;1.00
40454;DHT22;26160;51.858;4.398;2023-06-14T18:37:50;24.50;1.00
40454;DHT22;26160;51.858;4.398;2023-06-14T18:40:16;24.40;1.00
40454;DHT22;26160;51.858;4.398;2023-06-14T18:43:01;24.40;1.00
40454;DHT22;26160;51.858;4.398;2023-06-14T18:58:43;24.00;1.00
40454;DHT22;26160;51.858;4.398;2023-06-14T19:01:37;23.90;1.00
40454;DHT22;26160;51.858;4.398;2023-06-14T19:04:14;23.90;1.00
40454;DHT22;26160;51.858;4.398;2023-06-14T19:25:37;23.70;1.00
40454;DHT22;26160;51.858;4.398;2023-06-14T20:40:28;21.80;1.00
40454;DHT22;26160;51.858;4.398;2023-06-14T20:42:55;21.60;1.00
40454;DHT22;26160;51.858;4.398;2023-06-14T20:45:22;21.60;1.00
40454;DHT22;26160;51.858;4.398;2023-06-14T20:47:50;21.50;1.00
40454;DHT22;26160;51.858;4.398;2023-06-14T20:50:18;21.30;1.00
40454;DHT22;26160;51.858;4.398;2023-06-14T20:52:45;21.20;1.00
40454;DHT22;26160;51.858;4.398;2023-06-14T20:55:12;21.10;1.00
40454;DHT22;26160;51.858;4.398;2023-06-14T20:57:38;21.40;1.00
40454;DHT22;26160;51.858;4.398;2023-06-14T21:00:05;21.30;1.00
40454;DHT22;26160;51.858;4.398;2023-06-14T21:02:37;21.10;1.00
40454;DHT22;26160;51.858;4.398;2023-06-14T21:05:10;21.00;1.00
40454;DHT22;26160;51.858;4.398;2023-06-14T21:07:36;21.00;1.00
40454;DHT22;26160;51.858;4.398;2023-06-14T21:10:03;20.90;1.00
40454;DHT22;26160;51.858;4.398;2023-06-14T21:12:29;20.90;1.00
40454;DHT22;26160;51.858;4.398;2023-06-14T21:14:58;20.80;1.00
40454;DHT22;26160;51.858;4.398;2023-06-14T21:17:25;20.70;1.00
40454;DHT22;26160;51.858;4.398;2023-06-14T21:19:51;20.50;1.00
40454;DHT22;26160;51.858;4.398;2023-06-14T21:22:17;20.50;1.00
40454;DHT22;26160;51.858;4.398;2023-06-14T21:24:44;20.40;1.00
40454;DHT22;26160;51.858;4.398;2023-06-14T21:27:30;20.30;1.00
40454;DHT22;26160;51.858;4.398;2023-06-14T21:33:06;20.20;1.00